sensor_id;sensor_type;location;lat;lon;timestamp;P1;durP1;ratioP1;P2;durP2;ratioP2
20621;SDS011;10470;42.670;23.354;2022-12-29T00:01:06;43.97;;;25.93;;
20621;SDS011;10470;42.670;23.354;2022-12-29T00:03:51;42.77;;;26.90;;
20621;SDS011;10470;42.670;23.354;2022-12-29T00:06:28;48.97;;;28.50;;
20621;SDS011;10470;42.670;23.354;2022-12-29T00:09:14;52.73;;;29.57;;
20621;SDS011;10470;42.670;23.354;2022-12-29T00:12:02;51.87;;;29.67;;
20621;SDS011;10470;42.670;23.354;2022-12-29T00:14:49;51.60;;;30.43;;
20621;SDS011;10470;42.670;23.354;2022-12-29T00:17:53;52.93;;;30.17;;
20621;SDS011;10470;42.670;23.354;2022-12-29T00:20:38;50.57;;;29.47;;
20621;SDS011;10470;42.670;23.354;2022-12-29T00:23:42;51.70;;;30.00;;
20621;SDS011;10470;42.670;23.354;2022-12-29T00:26:47;54.60;;;30.20;;
20621;SDS011;10470;42.670;23.354;2022-12-29T00:29:42;46.93;;;28.50;;
20621;SDS011;10470;42.670;23.354;2022-12-29T00:32:46;45.63;;;24.63;;
20621;SDS011;10470;42.670;23.354;2022-12-29T00:35:51;39.37;;;23.30;;
20621;SDS011;10470;42.670;23.354;2022-12-29T00:38:39;35.60;;;21.17;;
20621;SDS011;10470;42.670;23.354;2022-12-29T00:41:46;38.00;;;21.83;;
20621;SDS011;10470;42.670;23.354;2022-12-29T00:44:51;34.63;;;21.33;;
20621;SDS011;10470;42.670;23.354;2022-12-29T00:47:37;35.63;;;21.03;;
20621;SDS011;10470;42.670;23.354;2022-12-29T00:50:22;34.67;;;20.67;;
20621;SDS011;10470;42.670;23.354;2022-12-29T00:53:07;33.40;;;20.40;;
20621;SDS011;10470;42.670;23.354;2022-12-29T00:55:53;33.30;;;19.90;;
20621;SDS011;10470;42.670;23.354;2022-12-29T00:58:38;36.87;;;20.47;;
20621;SDS011;10470;42.670;23.354;2022-12-29T01:01:24;32.03;;;19.27;;
20621;SDS011;10470;42.670;23.354;2022-12-29T01:04:09;33.57;;;20.13;;
20621;SDS011;10470;42.670;23.354;2022-12-29T01:06:55;33.37;;;19.30;;
20621;SDS011;10470;42.670;23.354;2022-12-29T01:09:40;34.40;;;19.43;;
20621;SDS011;10470;42.670;23.354;2022-12-29T01:12:44;31.50;;;19.40;;
20621;SDS011;10470;42.670;23.354;2022-12-29T01:15:32;31.80;;;19.20;;
20621;SDS011;10470;42.670;23.354;2022-12-29T01:18:17;31.70;;;18.80;;
20621;SDS011;10470;42.670;23.354;2022-12-29T01:21:04;31.53;;;18.33;;
20621;SDS011;10470;42.670;23.354;2022-12-29T01:23:50;33.97;;;18.70;;
20621;SDS011;10470;42.670;23.354;2022-12-29T01:26:36;31.03;;;18.53;;
20621;SDS011;10470;42.670;23.354;2022-12-29T01:29:21;29.53;;;18.67;;
20621;SDS011;10470;42.670;23.354;2022-12-29T01:32:03;32.80;;;18.97;;
20621;SDS011;10470;42.670;23.354;2022-12-29T01:34:49;32.87;;;18.93;;
20621;SDS011;10470;42.670;23.354;2022-12-29T01:37:29;31.07;;;18.60;;
20621;SDS011;10470;42.670;23.354;2022-12-29T01:40:14;29.37;;;18.40;;
20621;SDS011;10470;42.670;23.354;2022-12-29T01:42:54;32.57;;;19.33;;
20621;SDS011;10470;42.670;23.354;2022-12-29T01:45:42;32.33;;;18.27;;
20621;SDS011;10470;42.670;23.354;2022-12-29T01:48:32;31.37;;;18.27;;
20621;SDS011;10470;42.670;23.354;2022-12-29T01:51:17;29.77;;;18.23;;
20621;SDS011;10470;42.670;23.354;2022-12-29T01:54:03;28.03;;;17.13;;
20621;SDS011;10470;42.670;23.354;2022-12-29T01:56:53;29.53;;;17.70;;
20621;SDS011;10470;42.670;23.354;2022-12-29T01:59:38;25.57;;;16.17;;
20621;SDS011;10470;42.670;23.354;2022-12-29T02:02:31;26.40;;;16.87;;
20621;SDS011;10470;42.670;23.354;2022-12-29T02:05:25;27.67;;;16.03;;
20621;SDS011;10470;42.670;23.354;2022-12-29T02:08:15;25.27;;;15.77;;
20621;SDS011;10470;42.670;23.354;2022-12-29T02:11:01;25.57;;;16.07;;
20621;SDS011;10470;42.670;23.354;2022-12-29T02:13:48;29.53;;;17.40;;
20621;SDS011;10470;42.670;23.354;2022-12-29T02:35:44;24.13;;;14.60;;
20621;SDS011;10470;42.670;23.354;2022-12-29T02:41:44;24.33;;;15.80;;
20621;SDS011;10470;42.670;23.354;2022-12-29T02:44:55;23.80;;;15.40;;
20621;SDS011;10470;42.670;23.354;2022-12-29T02:47:54;23.37;;;15.30;;
20621;SDS011;10470;42.670;23.354;2022-12-29T02:50:56;25.10;;;15.97;;
20621;SDS011;10470;42.670;23.354;2022-12-29T02:53:47;24.50;;;15.13;;
20621;SDS011;10470;42.670;23.354;2022-12-29T02:56:52;23.43;;;15.47;;
20621;SDS011;10470;42.670;23.354;2022-12-29T02:59:37;25.53;;;16.57;;
20621;SDS011;10470;42.670;23.354;2022-12-29T03:11:33;29.87;;;17.33;;
20621;SDS011;10470;42.670;23.354;2022-12-29T03:14:48;29.57;;;17.93;;
20621;SDS011;10470;42.670;23.354;2022-12-29T03:18:02;29.90;;;17.73;;
20621;SDS011;10470;42.670;23.354;2022-12-29T03:21:06;29.20;;;18.33;;
20621;SDS011;10470;42.670;23.354;2022-12-29T03:23:56;30.80;;;17.33;;
20621;SDS011;10470;42.670;23.354;2022-12-29T03:26:42;26.33;;;16.30;;
20621;SDS011;10470;42.670;23.354;2022-12-29T03:29:31;28.53;;;17.77;;
20621;SDS011;10470;42.670;23.354;2022-12-29T03:32:26;28.37;;;16.80;;
20621;SDS011;10470;42.670;23.354;2022-12-29T03:35:17;27.23;;;16.80;;
20621;SDS011;10470;42.670;23.354;2022-12-29T03:38:15;30.80;;;18.27;;
20621;SDS011;10470;42.670;23.354;2022-12-29T03:41:14;29.43;;;17.97;;
20621;SDS011;10470;42.670;23.354;2022-12-29T03:44:05;29.93;;;17.47;;
20621;SDS011;10470;42.670;23.354;2022-12-29T03:46:52;28.70;;;17.40;;
20621;SDS011;10470;42.670;23.354;2022-12-29T03:49:37;29.90;;;17.00;;
20621;SDS011;10470;42.670;23.354;2022-12-29T03:52:23;29.60;;;17.80;;
20621;SDS011;10470;42.670;23.354;2022-12-29T03:55:08;27.87;;;18.23;;
20621;SDS011;10470;42.670;23.354;2022-12-29T03:57:54;31.87;;;17.97;;
20621;SDS011;10470;42.670;23.354;2022-12-29T04:00:40;30.97;;;18.23;;
20621;SDS011;10470;42.670;23.354;2022-12-29T04:03:25;28.33;;;17.40;;
20621;SDS011;10470;42.670;23.354;2022-12-29T04:06:11;28.40;;;17.23;;
20621;SDS011;10470;42.670;23.354;2022-12-29T04:08:56;29.47;;;17.63;;
20621;SDS011;10470;42.670;23.354;2022-12-29T04:11:41;28.27;;;17.57;;
20621;SDS011;10470;42.670;23.354;2022-12-29T04:14:27;30.43;;;17.17;;
20621;SDS011;10470;42.670;23.354;2022-12-29T04:17:12;29.70;;;17.17;;
20621;SDS011;10470;42.670;23.354;2022-12-29T04:19:58;29.10;;;17.03;;
20621;SDS011;10470;42.670;23.354;2022-12-29T04:23:04;30.40;;;17.70;;
20621;SDS011;10470;42.670;23.354;2022-12-29T04:25:50;31.73;;;17.67;;
20621;SDS011;10470;42.670;23.354;2022-12-29T04:28:36;28.23;;;17.03;;
20621;SDS011;10470;42.670;23.354;2022-12-29T04:31:21;30.40;;;17.40;;
20621;SDS011;10470;42.670;23.354;2022-12-29T04:34:07;30.57;;;17.30;;
20621;SDS011;10470;42.670;23.354;2022-12-29T04:36:52;30.63;;;17.90;;
20621;SDS011;10470;42.670;23.354;2022-12-29T04:39:38;30.33;;;17.50;;
20621;SDS011;10470;42.670;23.354;2022-12-29T04:42:23;29.00;;;17.90;;
20621;SDS011;10470;42.670;23.354;2022-12-29T04:45:08;30.33;;;18.10;;
20621;SDS011;10470;42.670;23.354;2022-12-29T04:47:54;30.87;;;17.87;;
20621;SDS011;10470;42.670;23.354;2022-12-29T04:50:40;30.13;;;18.07;;
20621;SDS011;10470;42.670;23.354;2022-12-29T04:53:26;33.20;;;17.53;;
20621;SDS011;10470;42.670;23.354;2022-12-29T04:56:12;33.67;;;18.50;;
20621;SDS011;10470;42.670;23.354;2022-12-29T04:58:57;31.67;;;18.30;;
20621;SDS011;10470;42.670;23.354;2022-12-29T05:01:43;37.70;;;22.40;;
20621;SDS011;10470;42.670;23.354;2022-12-29T05:04:28;33.63;;;18.90;;
20621;SDS011;10470;42.670;23.354;2022-12-29T05:07:13;33.93;;;20.40;;
20621;SDS011;10470;42.670;23.354;2022-12-29T05:09:59;30.03;;;18.03;;
20621;SDS011;10470;42.670;23.354;2022-12-29T05:12:45;36.17;;;20.73;;
20621;SDS011;10470;42.670;23.354;2022-12-29T05:15:30;34.13;;;19.73;;
20621;SDS011;10470;42.670;23.354;2022-12-29T05:18:16;29.17;;;17.77;;
20621;SDS011;10470;42.670;23.354;2022-12-29T05:21:01;32.27;;;18.97;;
20621;SDS011;10470;42.670;23.354;2022-12-29T05:23:47;32.67;;;18.63;;
20621;SDS011;10470;42.670;23.354;2022-12-29T05:26:32;31.70;;;19.37;;
20621;SDS011;10470;42.670;23.354;2022-12-29T05:29:18;33.30;;;18.77;;
20621;SDS011;10470;42.670;23.354;2022-12-29T05:32:03;35.80;;;20.80;;
20621;SDS011;10470;42.670;23.354;2022-12-29T05:34:49;34.53;;;19.60;;
20621;SDS011;10470;42.670;23.354;2022-12-29T05:37:34;34.80;;;19.97;;
20621;SDS011;10470;42.670;23.354;2022-12-29T05:40:20;33.13;;;19.80;;
20621;SDS011;10470;42.670;23.354;2022-12-29T05:43:05;35.27;;;20.13;;
20621;SDS011;10470;42.670;23.354;2022-12-29T05:45:51;33.93;;;19.93;;
20621;SDS011;10470;42.670;23.354;2022-12-29T05:48:37;38.17;;;20.60;;
20621;SDS011;10470;42.670;23.354;2022-12-29T05:51:23;35.17;;;20.43;;
20621;SDS011;10470;42.670;23.354;2022-12-29T05:54:08;37.67;;;20.43;;
20621;SDS011;10470;42.670;23.354;2022-12-29T05:56:40;35.27;;;20.90;;
20621;SDS011;10470;42.670;23.354;2022-12-29T05:59:26;38.70;;;23.37;;
20621;SDS011;10470;42.670;23.354;2022-12-29T06:02:11;37.70;;;20.83;;
20621;SDS011;10470;42.670;23.354;2022-12-29T06:04:56;34.57;;;20.30;;
20621;SDS011;10470;42.670;23.354;2022-12-29T06:07:42;37.83;;;20.07;;
20621;SDS011;10470;42.670;23.354;2022-12-29T06:10:27;45.53;;;22.40;;
20621;SDS011;10470;42.670;23.354;2022-12-29T06:13:13;40.00;;;22.10;;
20621;SDS011;10470;42.670;23.354;2022-12-29T06:15:58;38.80;;;22.40;;
20621;SDS011;10470;42.670;23.354;2022-12-29T06:18:44;39.67;;;22.10;;
20621;SDS011;10470;42.670;23.354;2022-12-29T06:21:29;43.13;;;23.40;;
20621;SDS011;10470;42.670;23.354;2022-12-29T06:24:15;40.43;;;22.60;;
20621;SDS011;10470;42.670;23.354;2022-12-29T06:27:00;42.27;;;23.23;;
20621;SDS011;10470;42.670;23.354;2022-12-29T06:29:43;38.43;;;21.60;;
20621;SDS011;10470;42.670;23.354;2022-12-29T06:32:29;41.60;;;21.83;;
20621;SDS011;10470;42.670;23.354;2022-12-29T06:35:11;41.23;;;23.07;;
20621;SDS011;10470;42.670;23.354;2022-12-29T06:37:56;46.63;;;23.00;;
20621;SDS011;10470;42.670;23.354;2022-12-29T06:40:38;38.37;;;22.50;;
20621;SDS011;10470;42.670;23.354;2022-12-29T06:43:23;41.90;;;23.57;;
20621;SDS011;10470;42.670;23.354;2022-12-29T06:46:05;38.80;;;23.77;;
20621;SDS011;10470;42.670;23.354;2022-12-29T06:48:50;41.03;;;22.87;;
20621;SDS011;10470;42.670;23.354;2022-12-29T06:51:32;43.53;;;24.27;;
20621;SDS011;10470;42.670;23.354;2022-12-29T06:54:18;41.00;;;24.03;;
20621;SDS011;10470;42.670;23.354;2022-12-29T06:56:58;38.97;;;22.93;;
20621;SDS011;10470;42.670;23.354;2022-12-29T06:59:43;38.97;;;22.97;;
20621;SDS011;10470;42.670;23.354;2022-12-29T07:02:23;40.10;;;22.77;;
20621;SDS011;10470;42.670;23.354;2022-12-29T07:05:10;39.33;;;24.50;;
20621;SDS011;10470;42.670;23.354;2022-12-29T07:07:50;41.30;;;24.83;;
20621;SDS011;10470;42.670;23.354;2022-12-29T07:10:36;45.40;;;25.27;;
20621;SDS011;10470;42.670;23.354;2022-12-29T07:13:17;44.73;;;23.63;;
20621;SDS011;10470;42.670;23.354;2022-12-29T07:16:08;41.53;;;24.37;;
20621;SDS011;10470;42.670;23.354;2022-12-29T07:18:43;38.23;;;23.23;;
20621;SDS011;10470;42.670;23.354;2022-12-29T07:21:29;41.23;;;22.63;;
20621;SDS011;10470;42.670;23.354;2022-12-29T07:24:11;42.10;;;23.40;;
20621;SDS011;10470;42.670;23.354;2022-12-29T07:26:56;39.13;;;23.77;;
20621;SDS011;10470;42.670;23.354;2022-12-29T07:29:36;37.13;;;23.53;;
20621;SDS011;10470;42.670;23.354;2022-12-29T07:32:23;41.93;;;23.27;;
20621;SDS011;10470;42.670;23.354;2022-12-29T07:35:01;37.53;;;22.27;;
20621;SDS011;10470;42.670;23.354;2022-12-29T07:37:47;39.23;;;22.53;;
20621;SDS011;10470;42.670;23.354;2022-12-29T07:40:28;36.47;;;21.87;;
20621;SDS011;10470;42.670;23.354;2022-12-29T07:43:13;36.90;;;22.83;;
20621;SDS011;10470;42.670;23.354;2022-12-29T07:45:57;37.13;;;22.50;;
20621;SDS011;10470;42.670;23.354;2022-12-29T07:48:42;37.67;;;21.30;;
20621;SDS011;10470;42.670;23.354;2022-12-29T07:51:22;40.23;;;22.53;;
20621;SDS011;10470;42.670;23.354;2022-12-29T07:54:08;40.00;;;21.80;;
20621;SDS011;10470;42.670;23.354;2022-12-29T07:56:50;36.93;;;22.70;;
20621;SDS011;10470;42.670;23.354;2022-12-29T07:59:35;37.00;;;22.27;;
20621;SDS011;10470;42.670;23.354;2022-12-29T08:02:18;38.03;;;21.87;;
20621;SDS011;10470;42.670;23.354;2022-12-29T08:05:03;35.70;;;20.90;;
20621;SDS011;10470;42.670;23.354;2022-12-29T08:07:44;34.70;;;21.00;;
20621;SDS011;10470;42.670;23.354;2022-12-29T08:10:30;40.40;;;23.13;;
20621;SDS011;10470;42.670;23.354;2022-12-29T08:13:12;41.50;;;22.23;;
20621;SDS011;10470;42.670;23.354;2022-12-29T08:15:58;35.07;;;22.73;;
20621;SDS011;10470;42.670;23.354;2022-12-29T08:18:38;38.73;;;23.07;;
20621;SDS011;10470;42.670;23.354;2022-12-29T08:21:24;36.53;;;22.90;;
20621;SDS011;10470;42.670;23.354;2022-12-29T08:24:05;41.33;;;22.97;;
20621;SDS011;10470;42.670;23.354;2022-12-29T08:26:51;41.83;;;24.33;;
20621;SDS011;10470;42.670;23.354;2022-12-29T08:29:31;36.90;;;22.83;;
20621;SDS011;10470;42.670;23.354;2022-12-29T08:32:17;41.50;;;24.03;;
20621;SDS011;10470;42.670;23.354;2022-12-29T08:34:59;35.40;;;22.40;;
20621;SDS011;10470;42.670;23.354;2022-12-29T08:37:45;41.47;;;24.83;;
20621;SDS011;10470;42.670;23.354;2022-12-29T08:40:26;43.80;;;24.27;;
20621;SDS011;10470;42.670;23.354;2022-12-29T08:43:12;41.60;;;25.40;;
20621;SDS011;10470;42.670;23.354;2022-12-29T08:45:56;44.23;;;25.70;;
20621;SDS011;10470;42.670;23.354;2022-12-29T08:48:42;40.90;;;24.43;;
20621;SDS011;10470;42.670;23.354;2022-12-29T08:51:22;41.07;;;23.77;;
20621;SDS011;10470;42.670;23.354;2022-12-29T08:54:07;34.20;;;22.97;;
20621;SDS011;10470;42.670;23.354;2022-12-29T08:56:49;41.37;;;23.57;;
20621;SDS011;10470;42.670;23.354;2022-12-29T08:59:34;38.97;;;22.73;;
20621;SDS011;10470;42.670;23.354;2022-12-29T09:02:15;37.23;;;23.53;;
20621;SDS011;10470;42.670;23.354;2022-12-29T09:05:00;37.77;;;21.90;;
20621;SDS011;10470;42.670;23.354;2022-12-29T09:07:45;39.80;;;24.13;;
20621;SDS011;10470;42.670;23.354;2022-12-29T09:10:31;34.37;;;21.83;;
20621;SDS011;10470;42.670;23.354;2022-12-29T09:13:13;35.77;;;22.40;;
20621;SDS011;10470;42.670;23.354;2022-12-29T09:16:00;36.53;;;21.57;;
20621;SDS011;10470;42.670;23.354;2022-12-29T09:18:43;34.67;;;21.97;;
20621;SDS011;10470;42.670;23.354;2022-12-29T09:21:29;37.17;;;22.07;;
20621;SDS011;10470;42.670;23.354;2022-12-29T09:24:09;39.20;;;21.87;;
20621;SDS011;10470;42.670;23.354;2022-12-29T09:26:54;35.07;;;22.23;;
20621;SDS011;10470;42.670;23.354;2022-12-29T09:29:37;35.70;;;21.70;;
20621;SDS011;10470;42.670;23.354;2022-12-29T09:32:22;34.60;;;22.27;;
20621;SDS011;10470;42.670;23.354;2022-12-29T09:35:05;34.37;;;21.07;;
20621;SDS011;10470;42.670;23.354;2022-12-29T09:37:51;35.53;;;21.40;;
20621;SDS011;10470;42.670;23.354;2022-12-29T09:40:31;33.60;;;21.97;;
20621;SDS011;10470;42.670;23.354;2022-12-29T09:46:40;36.13;;;21.27;;
20621;SDS011;10470;42.670;23.354;2022-12-29T09:49:39;32.33;;;20.67;;
20621;SDS011;10470;42.670;23.354;2022-12-29T09:52:25;36.53;;;20.77;;
20621;SDS011;10470;42.670;23.354;2022-12-29T09:55:17;33.20;;;20.17;;
20621;SDS011;10470;42.670;23.354;2022-12-29T09:58:10;32.40;;;19.93;;
20621;SDS011;10470;42.670;23.354;2022-12-29T10:03:55;33.10;;;19.20;;
20621;SDS011;10470;42.670;23.354;2022-12-29T10:06:44;31.17;;;19.37;;
20621;SDS011;10470;42.670;23.354;2022-12-29T10:18:54;34.77;;;20.20;;
20621;SDS011;10470;42.670;23.354;2022-12-29T10:25:21;36.63;;;20.57;;
20621;SDS011;10470;42.670;23.354;2022-12-29T10:32:10;33.77;;;19.90;;
20621;SDS011;10470;42.670;23.354;2022-12-29T10:34:44;33.07;;;19.60;;
20621;SDS011;10470;42.670;23.354;2022-12-29T10:40:43;31.43;;;18.93;;
20621;SDS011;10470;42.670;23.354;2022-12-29T10:43:43;33.90;;;21.67;;
20621;SDS011;10470;42.670;23.354;2022-12-29T10:46:33;30.20;;;19.57;;
20621;SDS011;10470;42.670;23.354;2022-12-29T10:49:21;26.57;;;16.80;;
20621;SDS011;10470;42.670;23.354;2022-12-29T10:52:10;27.93;;;17.30;;
20621;SDS011;10470;42.670;23.354;2022-12-29T10:55:02;28.33;;;17.13;;
20621;SDS011;10470;42.670;23.354;2022-12-29T10:57:52;28.27;;;17.33;;
20621;SDS011;10470;42.670;23.354;2022-12-29T11:00:39;31.87;;;18.27;;
20621;SDS011;10470;42.670;23.354;2022-12-29T11:06:40;33.10;;;18.60;;
20621;SDS011;10470;42.670;23.354;2022-12-29T11:09:28;28.17;;;19.13;;
20621;SDS011;10470;42.670;23.354;2022-12-29T11:17:53;30.83;;;18.37;;
20621;SDS011;10470;42.670;23.354;2022-12-29T11:20:42;27.40;;;17.97;;
20621;SDS011;10470;42.670;23.354;2022-12-29T11:23:32;31.73;;;19.17;;
20621;SDS011;10470;42.670;23.354;2022-12-29T11:26:25;31.90;;;21.23;;
20621;SDS011;10470;42.670;23.354;2022-12-29T11:32:05;31.53;;;19.40;;
20621;SDS011;10470;42.670;23.354;2022-12-29T11:34:57;30.10;;;19.67;;
20621;SDS011;10470;42.670;23.354;2022-12-29T11:37:43;29.67;;;19.63;;
20621;SDS011;10470;42.670;23.354;2022-12-29T11:40:29;28.53;;;18.60;;
20621;SDS011;10470;42.670;23.354;2022-12-29T11:43:03;31.77;;;19.77;;
20621;SDS011;10470;42.670;23.354;2022-12-29T11:45:51;27.77;;;18.50;;
20621;SDS011;10470;42.670;23.354;2022-12-29T11:48:32;27.07;;;18.03;;
20621;SDS011;10470;42.670;23.354;2022-12-29T11:51:23;30.07;;;18.53;;
20621;SDS011;10470;42.670;23.354;2022-12-29T11:54:27;31.67;;;18.10;;
20621;SDS011;10470;42.670;23.354;2022-12-29T11:57:23;27.20;;;18.43;;
20621;SDS011;10470;42.670;23.354;2022-12-29T12:00:20;28.17;;;18.60;;
20621;SDS011;10470;42.670;23.354;2022-12-29T12:03:42;29.77;;;19.50;;
20621;SDS011;10470;42.670;23.354;2022-12-29T12:06:23;33.97;;;20.43;;
20621;SDS011;10470;42.670;23.354;2022-12-29T12:09:12;34.23;;;20.40;;
20621;SDS011;10470;42.670;23.354;2022-12-29T12:12:02;31.93;;;20.33;;
20621;SDS011;10470;42.670;23.354;2022-12-29T12:14:52;32.77;;;20.80;;
20621;SDS011;10470;42.670;23.354;2022-12-29T12:17:47;36.10;;;23.37;;
20621;SDS011;10470;42.670;23.354;2022-12-29T12:21:05;32.27;;;20.23;;
20621;SDS011;10470;42.670;23.354;2022-12-29T12:24:07;32.73;;;20.10;;
20621;SDS011;10470;42.670;23.354;2022-12-29T12:30:04;28.63;;;18.07;;
20621;SDS011;10470;42.670;23.354;2022-12-29T12:54:14;25.77;;;18.97;;
20621;SDS011;10470;42.670;23.354;2022-12-29T13:00:28;25.37;;;17.93;;
20621;SDS011;10470;42.670;23.354;2022-12-29T13:03:31;22.97;;;16.47;;
20621;SDS011;10470;42.670;23.354;2022-12-29T13:16:10;27.50;;;19.03;;
20621;SDS011;10470;42.670;23.354;2022-12-29T13:24:50;31.23;;;19.40;;
20621;SDS011;10470;42.670;23.354;2022-12-29T13:30:54;28.83;;;20.13;;
20621;SDS011;10470;42.670;23.354;2022-12-29T13:37:12;29.77;;;19.87;;
20621;SDS011;10470;42.670;23.354;2022-12-29T13:39:56;32.03;;;20.60;;
20621;SDS011;10470;42.670;23.354;2022-12-29T13:42:47;31.80;;;20.73;;
20621;SDS011;10470;42.670;23.354;2022-12-29T13:45:33;32.63;;;20.07;;
20621;SDS011;10470;42.670;23.354;2022-12-29T13:48:21;33.43;;;20.90;;
20621;SDS011;10470;42.670;23.354;2022-12-29T13:51:12;34.03;;;20.53;;
20621;SDS011;10470;42.670;23.354;2022-12-29T13:54:09;32.27;;;21.53;;
20621;SDS011;10470;42.670;23.354;2022-12-29T13:57:08;35.90;;;20.37;;
20621;SDS011;10470;42.670;23.354;2022-12-29T14:00:12;31.47;;;20.00;;
20621;SDS011;10470;42.670;23.354;2022-12-29T14:09:05;38.20;;;21.47;;
20621;SDS011;10470;42.670;23.354;2022-12-29T14:15:19;38.53;;;24.17;;
20621;SDS011;10470;42.670;23.354;2022-12-29T14:18:16;35.07;;;21.67;;
20621;SDS011;10470;42.670;23.354;2022-12-29T14:23:52;35.43;;;21.03;;
20621;SDS011;10470;42.670;23.354;2022-12-29T14:26:38;34.53;;;21.67;;
20621;SDS011;10470;42.670;23.354;2022-12-29T14:38:19;38.73;;;24.63;;
20621;SDS011;10470;42.670;23.354;2022-12-29T14:41:27;43.77;;;24.47;;
20621;SDS011;10470;42.670;23.354;2022-12-29T14:44:19;34.70;;;20.63;;
20621;SDS011;10470;42.670;23.354;2022-12-29T14:47:06;44.97;;;24.60;;
20621;SDS011;10470;42.670;23.354;2022-12-29T14:49:53;46.13;;;28.17;;
20621;SDS011;10470;42.670;23.354;2022-12-29T14:58:44;45.43;;;28.13;;
20621;SDS011;10470;42.670;23.354;2022-12-29T15:01:37;58.60;;;31.37;;
20621;SDS011;10470;42.670;23.354;2022-12-29T15:04:27;48.63;;;26.73;;
20621;SDS011;10470;42.670;23.354;2022-12-29T15:07:16;41.07;;;23.03;;
20621;SDS011;10470;42.670;23.354;2022-12-29T15:10:08;35.47;;;21.20;;
20621;SDS011;10470;42.670;23.354;2022-12-29T15:13:02;39.93;;;23.20;;
20621;SDS011;10470;42.670;23.354;2022-12-29T15:15:50;37.37;;;19.73;;
20621;SDS011;10470;42.670;23.354;2022-12-29T15:18:37;37.10;;;20.73;;
20621;SDS011;10470;42.670;23.354;2022-12-29T15:21:29;32.80;;;20.40;;
20621;SDS011;10470;42.670;23.354;2022-12-29T15:24:16;42.13;;;23.40;;
20621;SDS011;10470;42.670;23.354;2022-12-29T15:27:03;37.60;;;22.73;;
20621;SDS011;10470;42.670;23.354;2022-12-29T15:29:57;36.77;;;22.63;;
20621;SDS011;10470;42.670;23.354;2022-12-29T15:32:45;45.53;;;25.17;;
20621;SDS011;10470;42.670;23.354;2022-12-29T15:35:35;41.27;;;21.83;;
20621;SDS011;10470;42.670;23.354;2022-12-29T15:38:23;44.27;;;23.30;;
20621;SDS011;10470;42.670;23.354;2022-12-29T15:41:29;40.20;;;22.87;;
20621;SDS011;10470;42.670;23.354;2022-12-29T15:44:42;43.77;;;24.50;;
20621;SDS011;10470;42.670;23.354;2022-12-29T15:47:29;52.60;;;28.27;;
20621;SDS011;10470;42.670;23.354;2022-12-29T15:50:34;51.67;;;29.10;;
20621;SDS011;10470;42.670;23.354;2022-12-29T15:53:29;58.37;;;29.03;;
20621;SDS011;10470;42.670;23.354;2022-12-29T15:56:17;56.87;;;30.77;;
20621;SDS011;10470;42.670;23.354;2022-12-29T15:59:03;58.17;;;32.60;;
20621;SDS011;10470;42.670;23.354;2022-12-29T16:01:49;58.70;;;30.40;;
20621;SDS011;10470;42.670;23.354;2022-12-29T16:04:35;59.87;;;31.60;;
20621;SDS011;10470;42.670;23.354;2022-12-29T16:07:25;64.43;;;33.60;;
20621;SDS011;10470;42.670;23.354;2022-12-29T16:10:33;61.97;;;31.27;;
20621;SDS011;10470;42.670;23.354;2022-12-29T16:13:26;59.53;;;32.47;;
20621;SDS011;10470;42.670;23.354;2022-12-29T16:16:26;58.23;;;32.23;;
20621;SDS011;10470;42.670;23.354;2022-12-29T16:22:15;63.20;;;33.17;;
20621;SDS011;10470;42.670;23.354;2022-12-29T16:28:21;65.00;;;34.70;;
20621;SDS011;10470;42.670;23.354;2022-12-29T16:34:25;61.10;;;32.50;;
20621;SDS011;10470;42.670;23.354;2022-12-29T16:43:19;62.43;;;30.90;;
20621;SDS011;10470;42.670;23.354;2022-12-29T16:46:16;70.20;;;35.57;;
20621;SDS011;10470;42.670;23.354;2022-12-29T16:48:53;61.47;;;35.57;;
20621;SDS011;10470;42.670;23.354;2022-12-29T16:51:41;65.80;;;35.37;;
20621;SDS011;10470;42.670;23.354;2022-12-29T16:54:29;77.10;;;43.67;;
20621;SDS011;10470;42.670;23.354;2022-12-29T16:57:23;68.67;;;39.97;;
20621;SDS011;10470;42.670;23.354;2022-12-29T17:00:22;63.33;;;36.57;;
20621;SDS011;10470;42.670;23.354;2022-12-29T17:03:09;62.63;;;34.67;;
20621;SDS011;10470;42.670;23.354;2022-12-29T17:05:56;60.20;;;33.77;;
20621;SDS011;10470;42.670;23.354;2022-12-29T17:08:39;56.23;;;32.13;;
20621;SDS011;10470;42.670;23.354;2022-12-29T17:11:33;64.30;;;33.83;;
20621;SDS011;10470;42.670;23.354;2022-12-29T17:17:33;59.47;;;32.90;;
20621;SDS011;10470;42.670;23.354;2022-12-29T17:20:25;63.87;;;35.27;;
20621;SDS011;10470;42.670;23.354;2022-12-29T17:23:15;76.63;;;41.07;;
20621;SDS011;10470;42.670;23.354;2022-12-29T17:26:00;61.30;;;33.20;;
20621;SDS011;10470;42.670;23.354;2022-12-29T17:28:46;71.57;;;36.80;;
20621;SDS011;10470;42.670;23.354;2022-12-29T17:31:32;66.60;;;35.67;;
20621;SDS011;10470;42.670;23.354;2022-12-29T17:34:17;79.77;;;43.50;;
20621;SDS011;10470;42.670;23.354;2022-12-29T17:37:27;82.23;;;47.93;;
20621;SDS011;10470;42.670;23.354;2022-12-29T17:40:15;77.27;;;43.70;;
20621;SDS011;10470;42.670;23.354;2022-12-29T17:43:02;79.57;;;45.47;;
20621;SDS011;10470;42.670;23.354;2022-12-29T17:45:37;94.23;;;49.67;;
20621;SDS011;10470;42.670;23.354;2022-12-29T17:48:24;98.60;;;51.07;;
20621;SDS011;10470;42.670;23.354;2022-12-29T17:51:10;89.63;;;47.07;;
20621;SDS011;10470;42.670;23.354;2022-12-29T17:53:56;86.43;;;47.73;;
20621;SDS011;10470;42.670;23.354;2022-12-29T17:56:42;85.23;;;44.00;;
20621;SDS011;10470;42.670;23.354;2022-12-29T17:59:27;85.67;;;42.93;;
20621;SDS011;10470;42.670;23.354;2022-12-29T18:02:23;83.17;;;45.37;;
20621;SDS011;10470;42.670;23.354;2022-12-29T18:05:17;84.03;;;43.37;;
20621;SDS011;10470;42.670;23.354;2022-12-29T18:08:04;66.73;;;37.53;;
20621;SDS011;10470;42.670;23.354;2022-12-29T18:10:50;65.90;;;34.97;;
20621;SDS011;10470;42.670;23.354;2022-12-29T18:13:37;64.40;;;34.33;;
20621;SDS011;10470;42.670;23.354;2022-12-29T18:16:23;57.87;;;33.13;;
20621;SDS011;10470;42.670;23.354;2022-12-29T18:19:08;72.10;;;38.20;;
20621;SDS011;10470;42.670;23.354;2022-12-29T18:21:54;69.13;;;36.20;;
20621;SDS011;10470;42.670;23.354;2022-12-29T18:24:39;63.43;;;32.57;;
20621;SDS011;10470;42.670;23.354;2022-12-29T18:27:25;57.20;;;30.87;;
20621;SDS011;10470;42.670;23.354;2022-12-29T18:30:10;54.37;;;30.03;;
20621;SDS011;10470;42.670;23.354;2022-12-29T18:32:56;53.60;;;30.50;;
20621;SDS011;10470;42.670;23.354;2022-12-29T18:35:44;54.27;;;31.03;;
20621;SDS011;10470;42.670;23.354;2022-12-29T18:38:33;63.53;;;32.70;;
20621;SDS011;10470;42.670;23.354;2022-12-29T18:41:25;58.20;;;30.87;;
20621;SDS011;10470;42.670;23.354;2022-12-29T18:44:13;57.10;;;30.37;;
20621;SDS011;10470;42.670;23.354;2022-12-29T18:46:59;62.23;;;34.90;;
20621;SDS011;10470;42.670;23.354;2022-12-29T18:49:45;52.70;;;27.53;;
20621;SDS011;10470;42.670;23.354;2022-12-29T18:52:30;47.37;;;26.70;;
20621;SDS011;10470;42.670;23.354;2022-12-29T18:55:17;56.60;;;30.07;;